Time;durP1;ratioP1;P1;durP2;ratioP2;P2;SDS_P1;SDS_P2;PMS_P1;PMS_P2;Temp;Humidity;BMP_temperature;BMP_pressure;BME280_temperature;BME280_humidity;BME280_pressure;Samples;Min_cycle;Max_cycle;Signal;HPM_P1;HPM_P2
2022/01/12 00:01:01;;;;;;;30.53;16.13;;;;;;;;;;5017164;28;20109;-79
2022/01/12 00:03:28;;;;;;;34.67;16.63;;;;;;;;;;5018437;28;20330;-78
2022/01/12 00:05:55;;;;;;;32.15;16.38;;;;;;;;;;5018158;28;20042;-79
2022/01/12 00:08:21;;;;;;;34.83;17.50;;;;;;;;;;5017984;28;20061;-79
2022/01/12 00:10:48;;;;;;;34.03;16.63;;;;;;;;;;5016127;28;20073;-78
2022/01/12 00:13:15;;;;;;;32.05;16.45;;;;;;;;;;5016608;28;20111;-78
2022/01/12 00:15:43;;;;;;;32.13;16.40;;;;;;;;;;5018280;28;20046;-79
2022/01/12 00:18:10;;;;;;;29.33;15.88;;;;;;;;;;5018293;28;20123;-80
2022/01/12 00:20:37;;;;;;;29.83;15.77;;;;;;;;;;5015487;28;20393;-80
2022/01/12 00:23:04;;;;;;;31.65;16.88;;;;;;;;;;5016399;28;20112;-83
2022/01/12 00:25:34;;;;;;;32.63;16.48;;;;;;;;;;5018396;28;20501;-81
2022/01/12 00:33:31;;;;;;;32.97;15.00;;;;;;;;;;5017644;28;20052;-80
2022/01/12 00:35:59;;;;;;;34.88;16.88;;;;;;;;;;5017553;28;20076;-79
2022/01/12 00:38:29;;;;;;;32.25;15.35;;;;;;;;;;5017099;28;20509;-79
2022/01/12 00:40:57;;;;;;;35.95;17.90;;;;;;;;;;5020668;28;20072;-78
2022/01/12 00:43:27;;;;;;;28.75;15.68;;;;;;;;;;5020402;28;20485;-80
2022/01/12 00:45:55;;;;;;;34.90;17.27;;;;;;;;;;5020347;28;20053;-80
2022/01/12 00:48:22;;;;;;;34.25;16.60;;;;;;;;;;5019225;28;20287;-79
2022/01/12 00:50:49;;;;;;;34.13;17.08;;;;;;;;;;5019779;28;20149;-79
2022/01/12 00:53:16;;;;;;;34.65;16.27;;;;;;;;;;5019409;28;20046;-80
2022/01/12 00:55:43;;;;;;;34.53;16.92;;;;;;;;;;5020162;28;20056;-80
2022/01/12 00:58:10;;;;;;;35.17;16.27;;;;;;;;;;5018361;28;20046;-81
2022/01/12 01:00:37;;;;;;;31.10;15.68;;;;;;;;;;5018908;28;20405;-79
2022/01/12 01:03:05;;;;;;;36.72;17.13;;;;;;;;;;5019058;28;20052;-79
2022/01/12 01:05:33;;;;;;;33.08;16.95;;;;;;;;;;5028193;28;20065;-77
2022/01/12 01:08:00;;;;;;;35.13;17.15;;;;;;;;;;5032631;28;20046;-78
2022/01/12 01:10:38;;;;;;;31.98;16.42;;;;;;;;;;5025074;28;20562;-80
2022/01/12 01:13:05;;;;;;;33.60;17.35;;;;;;;;;;5025898;28;20124;-80
2022/01/12 01:15:54;;;;;;;31.33;17.42;;;;;;;;;;5024189;28;20046;-79
2022/01/12 01:26:39;;;;;;;32.40;16.30;;;;;;;;;;5022949;28;20080;-79
2022/01/12 01:29:06;;;;;;;33.97;17.60;;;;;;;;;;5022424;28;20050;-80
2022/01/12 01:31:34;;;;;;;33.15;15.55;;;;;;;;;;5025314;28;20100;-78
2022/01/12 01:34:09;;;;;;;36.75;17.48;;;;;;;;;;5033920;28;20061;-79
2022/01/12 01:36:37;;;;;;;33.72;16.67;;;;;;;;;;5023418;28;20053;-80
2022/01/12 01:39:06;;;;;;;33.17;17.45;;;;;;;;;;5023557;28;20073;-80
2022/01/12 01:41:33;;;;;;;33.83;17.23;;;;;;;;;;5024866;28;20052;-79
2022/01/12 01:44:31;;;;;;;37.85;17.00;;;;;;;;;;5024972;28;20042;-81
2022/01/12 01:55:12;;;;;;;35.20;17.48;;;;;;;;;;5023518;28;20060;-81
2022/01/12 01:57:40;;;;;;;34.83;17.08;;;;;;;;;;5023587;28;20057;-80
2022/01/12 02:00:10;;;;;;;35.33;17.88;;;;;;;;;;5024784;28;20045;-79
2022/01/12 02:02:36;;;;;;;38.97;18.50;;;;;;;;;;5023822;28;20132;-80
2022/01/12 02:05:06;;;;;;;39.33;16.98;;;;;;;;;;5025164;28;20046;-79
2022/01/12 02:07:33;;;;;;;34.83;17.30;;;;;;;;;;5027824;28;20061;-79
2022/01/12 02:10:00;;;;;;;37.25;18.23;;;;;;;;;;5026646;28;20446;-80
2022/01/12 02:12:28;;;;;;;39.95;19.08;;;;;;;;;;5023434;28;20077;-80
2022/01/12 02:14:55;;;;;;;38.45;18.52;;;;;;;;;;5025229;28;20077;-80
2022/01/12 02:17:26;;;;;;;35.33;18.02;;;;;;;;;;5023032;28;20054;-80
2022/01/12 02:20:09;;;;;;;39.10;18.50;;;;;;;;;;5022868;28;20060;-80
2022/01/12 02:36:26;;;;;;;40.92;18.65;;;;;;;;;;5023753;28;20056;-80
2022/01/12 02:41:40;;;;;;;40.22;18.30;;;;;;;;;;5024617;28;20108;-79
2022/01/12 02:55:09;;;;;;;40.92;19.15;;;;;;;;;;5023453;28;20052;-79
2022/01/12 02:57:36;;;;;;;39.65;19.17;;;;;;;;;;5022173;28;20104;-78
2022/01/12 03:00:08;;;;;;;42.30;19.30;;;;;;;;;;5021353;28;20054;-79
2022/01/12 03:02:37;;;;;;;43.97;19.67;;;;;;;;;;5021710;28;20049;-79
2022/01/12 03:07:53;;;;;;;40.55;19.15;;;;;;;;;;5015993;28;20054;-78
2022/01/12 03:10:21;;;;;;;42.08;18.63;;;;;;;;;;5021754;28;20050;-80
2022/01/12 03:12:48;;;;;;;44.28;18.90;;;;;;;;;;5021191;28;20050;-78
2022/01/12 03:15:15;;;;;;;41.42;18.55;;;;;;;;;;5020899;28;20042;-80
2022/01/12 03:17:42;;;;;;;42.17;18.00;;;;;;;;;;5020402;28;20050;-80
2022/01/12 03:20:10;;;;;;;38.97;19.05;;;;;;;;;;5020929;28;20046;-79
2022/01/12 03:22:37;;;;;;;42.60;18.08;;;;;;;;;;5020544;28;20104;-78
2022/01/12 03:25:05;;;;;;;39.67;18.55;;;;;;;;;;5020386;28;20084;-79
2022/01/12 03:27:33;;;;;;;42.38;17.88;;;;;;;;;;5021895;28;20428;-78
2022/01/12 03:30:00;;;;;;;40.13;19.00;;;;;;;;;;5020988;28;20078;-79
2022/01/12 03:32:34;;;;;;;42.13;18.10;;;;;;;;;;5020168;28;20112;-79
2022/01/12 03:35:10;;;;;;;41.88;19.77;;;;;;;;;;5015381;28;20050;-79
2022/01/12 03:37:42;;;;;;;46.13;19.02;;;;;;;;;;5014663;28;20521;-80
2022/01/12 03:40:10;;;;;;;43.63;20.30;;;;;;;;;;5014909;28;20046;-80
2022/01/12 03:42:39;;;;;;;44.78;17.90;;;;;;;;;;5015193;28;20072;-80
2022/01/12 03:45:07;;;;;;;51.05;20.05;;;;;;;;;;5015020;28;20104;-80
2022/01/12 03:47:34;;;;;;;43.67;19.40;;;;;;;;;;5021306;28;20054;-79
2022/01/12 03:50:01;;;;;;;43.38;20.02;;;;;;;;;;5024883;28;20072;-79
2022/01/12 03:52:28;;;;;;;42.33;18.83;;;;;;;;;;5017454;28;20050;-80
2022/01/12 03:54:54;;;;;;;41.75;19.65;;;;;;;;;;5016165;28;20081;-80
2022/01/12 03:57:21;;;;;;;48.35;21.70;;;;;;;;;;5022112;28;20050;-79
2022/01/12 03:59:49;;;;;;;43.30;18.80;;;;;;;;;;5020418;28;20045;-80
2022/01/12 04:02:16;;;;;;;47.47;20.75;;;;;;;;;;5015907;28;20077;-80
2022/01/12 04:05:06;;;;;;;52.78;20.58;;;;;;;;;;5015178;28;20084;-82
2022/01/12 04:10:15;;;;;;;44.53;20.08;;;;;;;;;;5019285;28;20543;-79
2022/01/12 04:12:42;;;;;;;45.65;19.15;;;;;;;;;;5020186;28;20045;-79
2022/01/12 04:15:10;;;;;;;46.30;21.08;;;;;;;;;;5021329;28;20493;-79
2022/01/12 04:17:37;;;;;;;48.45;20.13;;;;;;;;;;5021253;28;20069;-79
2022/01/12 04:20:05;;;;;;;54.22;21.58;;;;;;;;;;5019862;28;20099;-79
2022/01/12 04:25:17;;;;;;;44.38;19.67;;;;;;;;;;5019533;28;20100;-80
2022/01/12 04:27:44;;;;;;;44.90;20.65;;;;;;;;;;5020033;28;20049;-79
2022/01/12 04:30:13;;;;;;;53.30;22.63;;;;;;;;;;5018465;28;20049;-80
2022/01/12 04:32:42;;;;;;;53.38;22.05;;;;;;;;;;5018615;28;20456;-79
2022/01/12 04:35:09;;;;;;;46.90;20.10;;;;;;;;;;5019151;28;20050;-79
2022/01/12 04:37:36;;;;;;;48.38;20.98;;;;;;;;;;5019120;28;20050;-79
2022/01/12 04:40:05;;;;;;;50.58;21.77;;;;;;;;;;5018873;28;20112;-80
2022/01/12 04:42:34;;;;;;;52.25;21.35;;;;;;;;;;5018686;28;20571;-79
2022/01/12 04:45:14;;;;;;;50.35;20.77;;;;;;;;;;5019871;28;20564;-79
2022/01/12 04:47:58;;;;;;;54.92;21.77;;;;;;;;;;5025438;28;20049;-80
2022/01/12 04:50:27;;;;;;;51.80;20.42;;;;;;;;;;5026005;28;20049;-82
2022/01/12 04:52:55;;;;;;;56.88;21.75;;;;;;;;;;5024937;28;20420;-80
2022/01/12 04:55:21;;;;;;;65.28;22.67;;;;;;;;;;5025056;28;20069;-80
2022/01/12 04:57:48;;;;;;;64.75;22.70;;;;;;;;;;5025936;28;20093;-80
2022/01/12 05:00:18;;;;;;;57.08;21.92;;;;;;;;;;5025901;28;20065;-80
2022/01/12 05:08:20;;;;;;;64.78;24.15;;;;;;;;;;5020137;28;20428;-81
2022/01/12 05:13:33;;;;;;;57.80;21.23;;;;;;;;;;5020827;28;20136;-80
2022/01/12 05:16:01;;;;;;;64.70;24.52;;;;;;;;;;5020504;28;20132;-80
2022/01/12 05:18:30;;;;;;;67.65;24.17;;;;;;;;;;5020141;28;20129;-80
2022/01/12 05:20:57;;;;;;;62.80;21.88;;;;;;;;;;5020257;28;20045;-80
2022/01/12 05:23:25;;;;;;;62.28;23.50;;;;;;;;;;5020394;28;20084;-80
2022/01/12 05:25:52;;;;;;;62.85;22.13;;;;;;;;;;5021078;28;20049;-80
2022/01/12 05:28:19;;;;;;;65.30;24.63;;;;;;;;;;5020177;28;20073;-80
2022/01/12 05:30:47;;;;;;;55.38;20.92;;;;;;;;;;5020513;28;20460;-80
2022/01/12 05:33:14;;;;;;;62.92;23.13;;;;;;;;;;5020686;28;20614;-80
2022/01/12 05:35:43;;;;;;;57.97;22.73;;;;;;;;;;5020579;28;20088;-81
2022/01/12 05:38:12;;;;;;;62.53;22.20;;;;;;;;;;5020365;28;20050;-80
2022/01/12 05:40:40;;;;;;;69.40;24.63;;;;;;;;;;5021615;28;20057;-81
2022/01/12 05:43:07;;;;;;;67.78;24.10;;;;;;;;;;5021438;28;20092;-79
2022/01/12 05:45:37;;;;;;;70.18;25.35;;;;;;;;;;5021135;28;20050;-80
2022/01/12 05:53:27;;;;;;;58.67;22.50;;;;;;;;;;4997668;28;20050;-67
2022/01/12 05:55:54;;;;;;;67.00;24.05;;;;;;;;;;4998988;28;20050;-67
2022/01/12 05:58:21;;;;;;;64.50;22.80;;;;;;;;;;4994555;28;20493;-67
2022/01/12 06:00:49;;;;;;;71.90;25.25;;;;;;;;;;4995929;28;20100;-67
2022/01/12 06:03:16;;;;;;;69.55;25.10;;;;;;;;;;4995195;28;20515;-67
2022/01/12 06:05:43;;;;;;;65.82;23.88;;;;;;;;;;4995770;28;20058;-63
2022/01/12 06:08:10;;;;;;;69.90;25.38;;;;;;;;;;4994991;28;20062;-64
2022/01/12 06:10:39;;;;;;;66.40;23.92;;;;;;;;;;4995619;28;20514;-65
2022/01/12 06:13:05;;;;;;;66.13;23.80;;;;;;;;;;4995224;28;20118;-64
2022/01/12 06:15:32;;;;;;;58.95;23.23;;;;;;;;;;4995270;28;20057;-65
2022/01/12 06:17:59;;;;;;;67.60;24.75;;;;;;;;;;4995386;28;20055;-63
2022/01/12 06:20:27;;;;;;;67.40;25.00;;;;;;;;;;4995369;28;20065;-66
2022/01/12 06:22:54;;;;;;;66.22;23.70;;;;;;;;;;4994823;28;20062;-64
2022/01/12 06:25:21;;;;;;;73.88;24.35;;;;;;;;;;4995307;28;20081;-65
2022/01/12 06:27:53;;;;;;;66.20;24.52;;;;;;;;;;4994806;28;20054;-65
2022/01/12 06:33:06;;;;;;;70.63;23.58;;;;;;;;;;4995043;28;20053;-67
2022/01/12 06:35:33;;;;;;;73.75;24.98;;;;;;;;;;4995123;28;20145;-64
2022/01/12 06:38:00;;;;;;;73.05;24.83;;;;;;;;;;4994646;28;20276;-64
2022/01/12 06:40:28;;;;;;;62.25;22.90;;;;;;;;;;4994807;28;20129;-64
2022/01/12 06:42:56;;;;;;;72.22;23.63;;;;;;;;;;4994420;28;20054;-66
2022/01/12 06:45:23;;;;;;;68.97;24.02;;;;;;;;;;4994858;28;20050;-65
2022/01/12 06:47:50;;;;;;;74.40;27.15;;;;;;;;;;4994449;28;20058;-64
2022/01/12 06:50:18;;;;;;;75.57;24.83;;;;;;;;;;4994578;28;20050;-65
2022/01/12 06:52:44;;;;;;;77.38;26.15;;;;;;;;;;4994407;28;20058;-65
2022/01/12 06:55:15;;;;;;;73.38;23.45;;;;;;;;;;4994667;28;20057;-67
2022/01/12 06:57:41;;;;;;;80.30;26.88;;;;;;;;;;4994522;28;20061;-66
2022/01/12 07:00:11;;;;;;;74.18;25.10;;;;;;;;;;4994521;28;20050;-65
2022/01/12 07:02:40;;;;;;;80.18;26.52;;;;;;;;;;4994145;28;20061;-66
2022/01/12 07:05:08;;;;;;;72.55;24.23;;;;;;;;;;4994733;28;20050;-65
2022/01/12 07:07:35;;;;;;;64.65;22.77;;;;;;;;;;4994294;28;20042;-65
2022/01/12 07:10:02;;;;;;;75.45;26.08;;;;;;;;;;4994396;28;20050;-67
2022/01/12 07:12:29;;;;;;;70.47;23.35;;;;;;;;;;4994311;28;20419;-65
2022/01/12 07:14:56;;;;;;;82.45;25.67;;;;;;;;;;4994484;28;20584;-66
2022/01/12 07:17:25;;;;;;;86.47;28.42;;;;;;;;;;4994166;28;20053;-65
2022/01/12 07:19:52;;;;;;;80.93;26.85;;;;;;;;;;4994155;28;20389;-65
2022/01/12 07:22:19;;;;;;;88.35;25.95;;;;;;;;;;4993990;28;20046;-65
2022/01/12 07:24:46;;;;;;;83.75;25.83;;;;;;;;;;4994276;28;20050;-65
2022/01/12 07:27:15;;;;;;;91.30;26.63;;;;;;;;;;4994420;28;20530;-66
2022/01/12 07:29:42;;;;;;;89.15;28.27;;;;;;;;;;4994092;28;20499;-64
2022/01/12 07:32:09;;;;;;;89.43;25.80;;;;;;;;;;5003240;28;20054;-65
2022/01/12 07:34:37;;;;;;;78.53;25.83;;;;;;;;;;5013316;28;20064;-65
2022/01/12 07:37:05;;;;;;;83.38;25.75;;;;;;;;;;5013069;28;20050;-65
2022/01/12 07:39:32;;;;;;;91.55;26.15;;;;;;;;;;5013384;28;20465;-64
2022/01/12 07:41:59;;;;;;;89.45;27.65;;;;;;;;;;5013080;28;20052;-66
2022/01/12 07:44:26;;;;;;;90.50;29.80;;;;;;;;;;5012912;28;20060;-65
2022/01/12 07:46:53;;;;;;;94.82;28.85;;;;;;;;;;5013066;28;20414;-66
2022/01/12 07:49:20;;;;;;;93.70;30.40;;;;;;;;;;5012837;28;20045;-65
2022/01/12 07:51:49;;;;;;;100.47;31.08;;;;;;;;;;5012917;28;20061;-65
2022/01/12 07:54:16;;;;;;;93.25;28.13;;;;;;;;;;5012982;28;20400;-66
2022/01/12 07:56:43;;;;;;;92.05;28.52;;;;;;;;;;5012658;28;20060;-66
2022/01/12 07:59:10;;;;;;;88.65;27.08;;;;;;;;;;5012615;28;20450;-67
2022/01/12 08:01:37;;;;;;;88.35;28.63;;;;;;;;;;5012932;28;20414;-64
2022/01/12 08:04:04;;;;;;;90.85;27.92;;;;;;;;;;5013079;28;20053;-65
2022/01/12 08:06:31;;;;;;;91.43;26.30;;;;;;;;;;5011733;28;20434;-66
2022/01/12 08:08:59;;;;;;;86.07;28.45;;;;;;;;;;5000097;28;20415;-66
2022/01/12 08:11:26;;;;;;;96.95;30.63;;;;;;;;;;5011033;28;20081;-65
2022/01/12 08:13:53;;;;;;;94.43;28.38;;;;;;;;;;5010859;28;20076;-65
2022/01/12 08:16:20;;;;;;;91.70;27.77;;;;;;;;;;5011146;28;20491;-66
2022/01/12 08:18:47;;;;;;;93.93;28.02;;;;;;;;;;5010624;28;20056;-65
2022/01/12 08:21:14;;;;;;;105.13;29.92;;;;;;;;;;5010012;28;20081;-66
2022/01/12 08:23:41;;;;;;;99.50;29.88;;;;;;;;;;5010243;28;20058;-65
2022/01/12 08:26:09;;;;;;;90.47;29.23;;;;;;;;;;5010345;28;20050;-65
2022/01/12 08:28:36;;;;;;;108.32;31.50;;;;;;;;;;5010348;28;20050;-64
2022/01/12 08:31:03;;;;;;;112.85;32.80;;;;;;;;;;5010387;28;20097;-65
2022/01/12 08:33:30;;;;;;;98.88;31.73;;;;;;;;;;5010118;28;20050;-64
2022/01/12 08:35:57;;;;;;;95.97;29.35;;;;;;;;;;5001194;28;20050;-66
2022/01/12 08:38:24;;;;;;;88.10;29.90;;;;;;;;;;4990293;28;20042;-65
2022/01/12 08:40:51;;;;;;;109.32;32.17;;;;;;;;;;4990787;28;20057;-64
2022/01/12 08:43:19;;;;;;;105.75;31.60;;;;;;;;;;4990757;28;20046;-66
2022/01/12 08:45:46;;;;;;;99.20;29.05;;;;;;;;;;4990802;28;20408;-66
2022/01/12 08:48:13;;;;;;;95.40;28.67;;;;;;;;;;4990527;28;20050;-65
2022/01/12 08:50:42;;;;;;;100.57;29.15;;;;;;;;;;4990991;28;20046;-66
2022/01/12 08:53:09;;;;;;;116.63;34.20;;;;;;;;;;4991349;28;20503;-66
2022/01/12 08:55:36;;;;;;;112.13;36.50;;;;;;;;;;4990683;28;20061;-66
2022/01/12 08:58:03;;;;;;;155.55;52.28;;;;;;;;;;4990537;28;20057;-65
2022/01/12 09:00:31;;;;;;;128.55;39.38;;;;;;;;;;4995630;28;20069;-65
2022/01/12 09:02:58;;;;;;;142.00;44.92;;;;;;;;;;4992930;28;20656;-66
2022/01/12 09:05:25;;;;;;;116.95;34.38;;;;;;;;;;4990561;28;20086;-65
2022/01/12 09:07:53;;;;;;;103.22;30.83;;;;;;;;;;5009199;28;20452;-65
2022/01/12 09:10:20;;;;;;;92.05;28.27;;;;;;;;;;5001033;28;20054;-66
2022/01/12 09:12:47;;;;;;;92.03;27.13;;;;;;;;;;4990220;28;20055;-65
2022/01/12 09:15:14;;;;;;;94.85;27.73;;;;;;;;;;4990566;28;20065;-66
2022/01/12 09:17:43;;;;;;;83.50;26.02;;;;;;;;;;4991010;28;20051;-67
2022/01/12 09:20:11;;;;;;;92.88;26.85;;;;;;;;;;4990773;28;20047;-67
2022/01/12 09:22:44;;;;;;;89.95;29.15;;;;;;;;;;4991676;28;20054;-65
2022/01/12 09:25:12;;;;;;;89.30;28.27;;;;;;;;;;4996748;28;20053;-67
2022/01/12 09:27:40;;;;;;;76.20;24.45;;;;;;;;;;5012871;28;20111;-67
2022/01/12 09:30:09;;;;;;;74.72;25.33;;;;;;;;;;5000967;28;20566;-66
2022/01/12 09:32:37;;;;;;;72.22;25.77;;;;;;;;;;4996702;28;20045;-65
2022/01/12 09:35:08;;;;;;;86.97;25.10;;;;;;;;;;5016020;28;20545;-66
2022/01/12 09:37:46;;;;;;;90.97;29.52;;;;;;;;;;5017767;28;20101;-71
2022/01/12 09:40:15;;;;;;;106.10;30.70;;;;;;;;;;5015002;28;20049;-67
2022/01/12 09:42:46;;;;;;;89.28;26.95;;;;;;;;;;5015533;28;20419;-68
2022/01/12 09:45:17;;;;;;;90.97;27.67;;;;;;;;;;5013495;28;20045;-69
2022/01/12 09:47:50;;;;;;;;;;;;;;;;;;5014924;28;20141;-68
2022/01/12 09:50:21;;;;;;;91.15;29.35;;;;;;;;;;5016640;28;20004;-66
2022/01/12 09:52:49;;;;;;;;;;;;;;;;;;5016427;28;20084;-70
2022/01/12 09:55:18;;;;;;;64.05;20.98;;;;;;;;;;5015620;28;19922;-68
2022/01/12 09:57:47;;;;;;;64.93;22.65;;;;;;;;;;5015123;28;20398;-70
2022/01/12 10:00:18;;;;;;;69.00;21.55;;;;;;;;;;5014523;28;20128;-69
2022/01/12 10:02:49;;;;;;;72.28;24.05;;;;;;;;;;5015476;28;20407;-66
2022/01/12 10:05:18;;;;;;;64.68;22.35;;;;;;;;;;5015129;28;20096;-66
2022/01/12 10:07:46;;;;;;;65.65;24.88;;;;;;;;;;5014920;28;20557;-66
2022/01/12 10:10:15;;;;;;;67.75;23.70;;;;;;;;;;5014939;28;20135;-66
2022/01/12 10:12:55;;;;;;;63.97;23.63;;;;;;;;;;4997184;28;20065;-66
2022/01/12 10:15:27;;;;;;;75.45;22.90;;;;;;;;;;4994720;28;20137;-66
2022/01/12 10:18:01;;;;;;;66.97;23.23;;;;;;;;;;4993195;28;20145;-66
2022/01/12 10:20:30;;;;;;;58.78;21.33;;;;;;;;;;4994135;28;20050;-66
2022/01/12 10:23:00;;;;;;;67.82;20.80;;;;;;;;;;4993638;28;20088;-66
2022/01/12 10:25:29;;;;;;;75.28;24.10;;;;;;;;;;4994157;28;20109;-67
2022/01/12 10:27:57;;;;;;;72.25;23.05;;;;;;;;;;4994165;28;20046;-67
2022/01/12 10:30:25;;;;;;;56.83;20.30;;;;;;;;;;4994496;28;20065;-69
2022/01/12 10:33:04;;;;;;;103.35;33.55;;;;;;;;;;4994197;28;20057;-67
2022/01/12 10:35:35;;;;;;;70.18;25.55;;;;;;;;;;4993774;28;20508;-68
2022/01/12 10:38:09;;;;;;;;;;;;;;;;;;4994314;28;20484;-65
2022/01/12 10:40:50;;;;;;;70.25;22.65;;;;;;;;;;4993129;28;19961;-66
2022/01/12 10:43:32;;;;;;;65.80;23.75;;;;;;;;;;4994940;28;20115;-66
2022/01/12 10:46:00;;;;;;;66.45;23.05;;;;;;;;;;5014379;28;20050;-67
2022/01/12 10:48:39;;;;;;;53.88;19.73;;;;;;;;;;5012488;28;20464;-66
2022/01/12 10:51:08;;;;;;;67.63;21.83;;;;;;;;;;5012778;28;20380;-67
2022/01/12 10:53:36;;;;;;;78.30;24.90;;;;;;;;;;5012736;28;20049;-68
2022/01/12 10:56:06;;;;;;;63.92;23.98;;;;;;;;;;5012770;28;20495;-68
2022/01/12 10:58:33;;;;;;;72.70;23.23;;;;;;;;;;5012382;28;20054;-68
2022/01/12 11:01:00;;;;;;;69.97;23.23;;;;;;;;;;5008414;28;20125;-67
2022/01/12 11:03:28;;;;;;;68.57;21.73;;;;;;;;;;4992981;28;20626;-70
2022/01/12 11:05:56;;;;;;;68.97;23.30;;;;;;;;;;4992441;28;20050;-67
2022/01/12 11:08:26;;;;;;;68.68;22.33;;;;;;;;;;4992277;28;20044;-68
2022/01/12 11:10:55;;;;;;;73.45;25.15;;;;;;;;;;4991947;28;20089;-67
2022/01/12 11:13:22;;;;;;;73.05;22.77;;;;;;;;;;5011551;28;20466;-68
2022/01/12 11:15:50;;;;;;;60.33;22.08;;;;;;;;;;5011658;28;20057;-67
2022/01/12 11:18:20;;;;;;;68.07;22.48;;;;;;;;;;5012158;28;20054;-67
2022/01/12 11:20:50;;;;;;;66.90;23.45;;;;;;;;;;5012009;28;20069;-69
2022/01/12 11:23:19;;;;;;;67.00;23.48;;;;;;;;;;5011934;28;20494;-67
2022/01/12 11:25:49;;;;;;;73.32;22.67;;;;;;;;;;5012325;28;20100;-66
2022/01/12 11:28:18;;;;;;;64.30;22.77;;;;;;;;;;5011856;28;20129;-65
2022/01/12 11:30:47;;;;;;;66.35;22.92;;;;;;;;;;5011593;28;20052;-65
2022/01/12 11:33:15;;;;;;;71.88;23.13;;;;;;;;;;5011312;28;20069;-65
2022/01/12 11:35:44;;;;;;;58.90;21.08;;;;;;;;;;5011040;28;20112;-66
2022/01/12 11:38:24;;;;;;;61.92;21.08;;;;;;;;;;5005594;28;20057;-65
2022/01/12 11:40:55;;;;;;;60.15;23.02;;;;;;;;;;5011576;28;20050;-65
2022/01/12 11:43:27;;;;;;;69.10;21.80;;;;;;;;;;5010563;28;20057;-64
2022/01/12 11:46:02;;;;;;;64.97;22.30;;;;;;;;;;4993372;28;20055;-66
2022/01/12 11:48:31;;;;;;;62.30;21.67;;;;;;;;;;4991989;28;20046;-65
2022/01/12 11:50:58;;;;;;;55.47;21.05;;;;;;;;;;4991624;28;20085;-65
2022/01/12 11:53:25;;;;;;;59.30;21.67;;;;;;;;;;4994376;28;20050;-65
2022/01/12 11:55:53;;;;;;;93.78;33.13;;;;;;;;;;5009195;28;20050;-65
2022/01/12 11:58:22;;;;;;;70.53;23.48;;;;;;;;;;5011148;28;20437;-66
2022/01/12 12:00:49;;;;;;;67.78;25.00;;;;;;;;;;5004610;28;20062;-65
2022/01/12 12:03:18;;;;;;;61.20;21.90;;;;;;;;;;5007591;28;20259;-65
2022/01/12 12:05:55;;;;;;;61.15;21.80;;;;;;;;;;4991237;28;20065;-65
2022/01/12 12:08:26;;;;;;;66.20;23.83;;;;;;;;;;4991507;28;20504;-66
2022/01/12 12:10:55;;;;;;;64.03;21.92;;;;;;;;;;5003276;28;20057;-65
2022/01/12 12:13:23;;;;;;;63.63;22.45;;;;;;;;;;5010673;28;20108;-67
2022/01/12 12:15:51;;;;;;;57.47;20.48;;;;;;;;;;5047774;23;20050;-80
2022/01/12 12:18:18;;;;;;;69.57;22.60;;;;;;;;;;5013997;28;20048;-78
2022/01/12 12:20:45;;;;;;;71.88;25.55;;;;;;;;;;5011645;28;20489;-77
2022/01/12 12:23:12;;;;;;;78.07;25.00;;;;;;;;;;5013492;28;20082;-78
2022/01/12 12:25:39;;;;;;;89.03;27.23;;;;;;;;;;5014771;28;20042;-78
2022/01/12 12:28:09;;;;;;;68.82;23.00;;;;;;;;;;5014516;28;20082;-81
2022/01/12 12:30:38;;;;;;;66.35;21.60;;;;;;;;;;5020166;28;20509;-81
2022/01/12 12:33:07;;;;;;;73.43;24.00;;;;;;;;;;5017726;28;20416;-79
2022/01/12 12:35:36;;;;;;;62.85;22.98;;;;;;;;;;5016723;28;20056;-78
2022/01/12 12:38:05;;;;;;;66.30;22.27;;;;;;;;;;5018749;28;20046;-78
2022/01/12 12:40:35;;;;;;;71.75;23.00;;;;;;;;;;5001339;28;20440;-78
2022/01/12 12:43:05;;;;;;;60.57;20.90;;;;;;;;;;4994176;28;20050;-78
2022/01/12 12:45:45;;;;;;;73.50;25.90;;;;;;;;;;4993191;28;20505;-78
2022/01/12 12:48:14;;;;;;;70.97;23.58;;;;;;;;;;4992449;28;20085;-77
2022/01/12 12:50:41;;;;;;;70.68;21.98;;;;;;;;;;4990939;28;20329;-77
2022/01/12 12:53:09;;;;;;;92.30;32.08;;;;;;;;;;4991344;28;20050;-77
2022/01/12 12:55:38;;;;;;;85.05;31.13;;;;;;;;;;4993860;28;20046;-78
2022/01/12 12:58:05;;;;;;;76.57;27.10;;;;;;;;;;4999020;28;20057;-80
2022/01/12 13:00:33;;;;;;;64.15;22.42;;;;;;;;;;5001238;28;20424;-77
2022/01/12 13:03:03;;;;;;;66.45;23.10;;;;;;;;;;4997385;28;20497;-77
2022/01/12 13:05:32;;;;;;;56.35;19.48;;;;;;;;;;4992807;28;20061;-77
2022/01/12 13:07:59;;;;;;;66.03;23.05;;;;;;;;;;4996252;28;20077;-78
2022/01/12 13:10:28;;;;;;;62.70;21.55;;;;;;;;;;5012961;28;20115;-78
2022/01/12 13:12:58;;;;;;;64.78;22.45;;;;;;;;;;4990416;28;20078;-78
2022/01/12 13:15:27;;;;;;;63.77;20.83;;;;;;;;;;4996043;28;20085;-78
2022/01/12 13:18:05;;;;;;;58.45;20.50;;;;;;;;;;4994801;28;20082;-77
2022/01/12 13:23:18;;;;;;;64.38;22.05;;;;;;;;;;4995222;28;20417;-79
2022/01/12 13:25:45;;;;;;;62.15;20.92;;;;;;;;;;4994142;28;20070;-79
2022/01/12 13:28:12;;;;;;;61.40;22.15;;;;;;;;;;4994007;28;20100;-79
2022/01/12 13:30:49;;;;;;;65.28;20.70;;;;;;;;;;4994914;28;20078;-77
2022/01/12 13:33:28;;;;;;;61.08;21.40;;;;;;;;;;4995423;28;20174;-77
2022/01/12 13:35:55;;;;;;;64.68;21.50;;;;;;;;;;4994302;28;20053;-77
2022/01/12 13:38:27;;;;;;;56.63;19.83;;;;;;;;;;4993964;28;20093;-77
2022/01/12 13:40:56;;;;;;;63.22;20.45;;;;;;;;;;4993720;28;20134;-77
2022/01/12 13:43:24;;;;;;;61.55;21.13;;;;;;;;;;4994064;28;20133;-77
2022/01/12 13:46:00;;;;;;;59.70;21.10;;;;;;;;;;4994104;28;20049;-79
2022/01/12 13:48:32;;;;;;;62.75;21.50;;;;;;;;;;4993163;28;20046;-77
2022/01/12 13:51:02;;;;;;;56.30;21.23;;;;;;;;;;4999648;28;20121;-80
2022/01/12 13:53:34;;;;;;;61.33;21.33;;;;;;;;;;4998633;28;20050;-79
2022/01/12 13:56:03;;;;;;;61.95;21.08;;;;;;;;;;4997657;28;20062;-79
2022/01/12 13:58:31;;;;;;;65.57;20.65;;;;;;;;;;4998348;28;20057;-79
2022/01/12 14:01:02;;;;;;;62.25;20.75;;;;;;;;;;4996460;28;20466;-78
2022/01/12 14:03:33;;;;;;;56.20;20.48;;;;;;;;;;4994678;28;20077;-78
2022/01/12 14:06:00;;;;;;;62.00;22.15;;;;;;;;;;4996071;28;20112;-78
2022/01/12 14:08:40;;;;;;;64.13;21.58;;;;;;;;;;4996491;28;20050;-78
2022/01/12 14:11:08;;;;;;;65.47;20.15;;;;;;;;;;4996686;28;20556;-78
2022/01/12 14:13:40;;;;;;;61.22;21.33;;;;;;;;;;4996085;28;20497;-78
2022/01/12 14:16:11;;;;;;;55.50;20.23;;;;;;;;;;4995510;28;20050;-76
2022/01/12 14:18:40;;;;;;;57.65;22.27;;;;;;;;;;4995952;28;20050;-77
2022/01/12 14:21:17;;;;;;;61.60;19.67;;;;;;;;;;4997204;28;20046;-77
2022/01/12 14:23:44;;;;;;;62.13;21.30;;;;;;;;;;4996263;28;20050;-76
2022/01/12 14:26:21;;;;;;;53.75;19.30;;;;;;;;;;4996346;28;20043;-78
2022/01/12 14:28:48;;;;;;;56.55;19.02;;;;;;;;;;4996376;28;20081;-78
2022/01/12 14:31:14;;;;;;;54.15;20.25;;;;;;;;;;5002040;28;20074;-77
2022/01/12 14:33:42;;;;;;;56.50;21.70;;;;;;;;;;5001700;28;20105;-78
2022/01/12 14:36:09;;;;;;;58.50;21.48;;;;;;;;;;4995695;28;20050;-78
2022/01/12 14:38:36;;;;;;;56.88;20.20;;;;;;;;;;4997194;28;20047;-78
2022/01/12 14:41:03;;;;;;;54.70;20.92;;;;;;;;;;4998524;28;20050;-77
2022/01/12 14:43:31;;;;;;;54.20;19.65;;;;;;;;;;4994226;28;20046;-77
2022/01/12 14:45:59;;;;;;;59.15;21.52;;;;;;;;;;4994525;28;20046;-78
2022/01/12 14:48:26;;;;;;;60.17;22.08;;;;;;;;;;4995124;28;20054;-78
2022/01/12 14:50:56;;;;;;;68.10;25.35;;;;;;;;;;4995631;28;20046;-77
2022/01/12 14:53:23;;;;;;;62.97;23.50;;;;;;;;;;4994802;28;20050;-78
2022/01/12 14:55:54;;;;;;;63.78;22.45;;;;;;;;;;4994709;28;20054;-78
2022/01/12 14:58:22;;;;;;;63.42;22.98;;;;;;;;;;4995717;28;20055;-78
2022/01/12 15:00:50;;;;;;;61.17;20.90;;;;;;;;;;4996536;28;20520;-79
2022/01/12 15:03:17;;;;;;;62.65;21.13;;;;;;;;;;4997315;28;20046;-78
2022/01/12 15:05:45;;;;;;;61.03;20.95;;;;;;;;;;4998380;28;20050;-78
2022/01/12 15:08:16;;;;;;;64.85;23.45;;;;;;;;;;4996178;28;20054;-78
2022/01/12 15:10:43;;;;;;;57.13;21.80;;;;;;;;;;4994372;28;20091;-78
2022/01/12 15:13:18;;;;;;;51.78;20.67;;;;;;;;;;4994604;28;20069;-79
2022/01/12 15:15:49;;;;;;;59.53;21.60;;;;;;;;;;4995686;28;20054;-78
2022/01/12 15:18:15;;;;;;;;;;;;;;;;;;4997826;28;20058;-78
2022/01/12 15:20:42;;;;;;;59.53;20.75;;;;;;;;;;4998966;28;20436;-77
2022/01/12 15:23:09;;;;;;;67.72;22.77;;;;;;;;;;4992085;28;20047;-79
2022/01/12 15:25:38;;;;;;;57.85;22.05;;;;;;;;;;4990597;28;21526;-79
2022/01/12 15:28:07;;;;;;;57.20;20.63;;;;;;;;;;4998247;28;20128;-79
2022/01/12 15:30:34;;;;;;;54.53;20.45;;;;;;;;;;4998504;28;20054;-79
2022/01/12 15:33:01;;;;;;;60.55;23.92;;;;;;;;;;4996312;28;20154;-78
2022/01/12 15:35:28;;;;;;;59.78;20.88;;;;;;;;;;4996208;28;20046;-78
2022/01/12 15:37:57;;;;;;;68.15;23.80;;;;;;;;;;4994236;28;20048;-79
2022/01/12 15:40:23;;;;;;;70.80;23.25;;;;;;;;;;4990437;28;20057;-78
2022/01/12 15:42:52;;;;;;;58.58;21.40;;;;;;;;;;4997258;28;20046;-78
2022/01/12 15:45:19;;;;;;;62.33;21.38;;;;;;;;;;4995893;28;20050;-78